Time;durP1;ratioP1;P1;durP2;ratioP2;P2;SDS_P1;SDS_P2;PMS_P1;PMS_P2;Temp;Humidity;BMP_temperature;BMP_pressure;BME280_temperature;BME280_humidity;BME280_pressure;Samples;Min_cycle;Max_cycle;Signal;HPM_P1;HPM_P2
2023/04/12 00:01:20;;;;;;;;;10.00;7.00;;;;;8.28;56.06;98864.00;5070058;28;8861;-79
2023/04/12 00:03:49;;;;;;;;;10.00;7.00;;;;;8.37;55.73;98857.72;5051263;28;8877;-77
2023/04/12 00:06:26;;;;;;;;;7.80;7.00;;;;;8.17;57.30;98845.91;5088835;28;8839;-76
2023/04/12 00:08:55;;;;;;;;;7.00;7.00;;;;;8.13;57.43;98844.25;5094156;28;8894;-77
2023/04/12 00:11:23;;;;;;;;;9.60;8.00;;;;;8.08;57.43;98846.13;5067541;28;8852;-78
2023/04/12 00:13:54;;;;;;;;;6.60;6.60;;;;;8.29;57.16;98820.34;4997602;28;8874;-77
2023/04/12 00:16:23;;;;;;;;;6.20;6.20;;;;;8.11;57.52;98813.78;5063047;28;8839;-75
2023/04/12 00:18:53;;;;;;;;;11.20;7.00;;;;;7.98;58.00;98811.41;5066378;28;8867;-80
2023/04/12 00:21:22;;;;;;;;;6.40;6.40;;;;;8.06;57.69;98824.34;5034304;28;8869;-78
2023/04/12 00:23:51;;;;;;;;;6.20;6.00;;;;;7.97;57.79;98817.56;5051035;28;8848;-78
2023/04/12 00:26:21;;;;;;;;;5.80;5.00;;;;;7.90;57.97;98843.91;5067557;28;8828;-79
2023/04/12 00:28:50;;;;;;;;;5.00;5.00;;;;;7.75;58.61;98825.00;5017234;28;9010;-77
2023/04/12 00:31:21;;;;;;;;;6.60;6.00;;;;;7.90;58.62;98815.13;5050504;28;8855;-80
2023/04/12 00:33:50;;;;;;;;;5.00;5.00;;;;;7.66;59.77;98806.88;5066039;28;8863;-80
2023/04/12 00:36:20;;;;;;;;;9.40;5.80;;;;;7.71;59.49;98814.66;5063092;28;8854;-76
2023/04/12 00:38:48;;;;;;;;;6.00;6.00;;;;;7.68;59.19;98812.94;4972559;28;8864;-78
2023/04/12 00:41:17;;;;;;;;;7.60;7.00;;;;;7.70;59.71;98812.91;5033998;28;8887;-76
2023/04/12 00:43:46;;;;;;;;;10.40;9.80;;;;;7.81;59.08;98801.31;5067771;28;8826;-79
2023/04/12 00:46:18;;;;;;;;;5.80;5.80;;;;;7.90;59.10;98807.28;5068099;28;8846;-77
2023/04/12 00:48:48;;;;;;;;;10.40;6.80;;;;;7.73;58.64;98818.09;5050622;28;8888;-77
2023/04/12 00:51:21;;;;;;;;;5.40;5.00;;;;;7.56;60.64;98802.75;5087294;28;8934;-76
2023/04/12 00:53:50;;;;;;;;;5.40;5.40;;;;;7.48;61.16;98823.81;5053882;28;9031;-76
2023/04/12 00:56:22;;;;;;;;;7.40;5.60;;;;;7.41;61.35;98820.47;5049813;28;8855;-77
2023/04/12 00:58:51;;;;;;;;;7.80;7.40;;;;;7.51;61.98;98817.66;5033003;28;8836;-76
2023/04/12 01:01:20;;;;;;;;;5.60;5.60;;;;;7.57;61.49;98809.69;5049929;28;8880;-75
2023/04/12 01:03:52;;;;;;;;;7.00;5.80;;;;;7.76;61.71;98804.94;5032068;28;8852;-77
2023/04/12 01:06:28;;;;;;;;;7.20;6.80;;;;;7.51;61.57;98815.06;5052550;28;8857;-76
2023/04/12 01:09:04;;;;;;;;;6.20;6.20;;;;;7.67;61.56;98806.84;5053427;28;8959;-77
2023/04/12 01:11:39;;;;;;;;;6.80;6.60;;;;;7.60;62.65;98804.41;5070226;28;8857;-76
2023/04/12 01:14:15;;;;;;;;;6.80;6.80;;;;;7.81;61.59;98796.09;5068736;28;8875;-76
2023/04/12 01:16:49;;;;;;;;;11.00;8.60;;;;;7.59;61.75;98803.56;5026081;28;8846;-77
2023/04/12 01:19:44;;;;;;;;;7.40;7.40;;;;;7.50;63.00;98805.50;5009445;28;8958;-77
2023/04/12 01:22:38;;;;;;;;;10.20;9.00;;;;;7.47;62.43;98799.41;5029299;28;8846;-78
2023/04/12 01:25:25;;;;;;;;;5.80;5.80;;;;;7.51;62.68;98794.97;5045831;28;8921;-77
2023/04/12 01:27:59;;;;;;;;;5.60;5.40;;;;;7.56;62.63;98801.00;5036170;28;9597;-79
2023/04/12 01:30:29;;;;;;;;;6.40;6.00;;;;;7.44;62.74;98803.88;5046246;28;8850;-80
2023/04/12 01:33:01;;;;;;;;;8.60;7.20;;;;;7.52;62.21;98795.88;5059026;28;8859;-77
2023/04/12 01:35:31;;;;;;;;;6.80;6.80;;;;;7.67;62.18;98792.94;5048117;28;8871;-78
2023/04/12 01:38:04;;;;;;;;;7.20;7.20;;;;;7.43;62.08;98792.53;5049088;28;8974;-77
2023/04/12 01:40:35;;;;;;;;;14.40;6.00;;;;;7.39;62.39;98784.78;5049158;28;8863;-78
2023/04/12 01:43:07;;;;;;;;;6.20;6.20;;;;;7.43;62.93;98792.53;5016463;28;8995;-78
2023/04/12 01:45:36;;;;;;;;;8.80;7.40;;;;;7.43;62.49;98796.91;5032616;28;8966;-78
2023/04/12 01:48:07;;;;;;;;;9.80;9.80;;;;;7.43;62.51;98802.97;5002902;28;8866;-76
2023/04/12 01:50:44;;;;;;;;;5.00;5.00;;;;;7.26;62.19;98805.94;5069296;28;8874;-76
2023/04/12 01:53:20;;;;;;;;;6.00;6.00;;;;;7.21;62.60;98805.19;5068533;28;8854;-76
2023/04/12 01:55:52;;;;;;;;;9.00;7.00;;;;;7.23;61.61;98802.50;5056407;28;8951;-75
2023/04/12 01:58:24;;;;;;;;;5.40;5.40;;;;;7.02;60.67;98814.22;5051246;28;9584;-76
2023/04/12 02:00:57;;;;;;;;;7.00;5.00;;;;;7.09;61.11;98803.63;5001384;28;8851;-77
2023/04/12 02:03:29;;;;;;;;;7.40;7.00;;;;;7.17;61.21;98798.25;5062985;28;8872;-81
2023/04/12 02:05:59;;;;;;;;;5.00;5.00;;;;;7.11;61.48;98800.16;5020902;28;8901;-75
2023/04/12 02:08:29;;;;;;;;;5.00;5.00;;;;;7.15;60.85;98799.19;5067199;28;8866;-78
2023/04/12 02:10:57;;;;;;;;;3.40;3.40;;;;;6.83;60.04;98806.72;5033293;28;8953;-76
2023/04/12 02:13:28;;;;;;;;;6.20;6.00;;;;;6.91;59.50;98811.84;5050210;28;8866;-76
2023/04/12 02:15:58;;;;;;;;;3.80;3.80;;;;;6.79;59.34;98810.25;5066487;28;8869;-78
2023/04/12 02:18:26;;;;;;;;;5.00;5.00;;;;;6.91;59.56;98811.84;5083442;28;8850;-77
2023/04/12 02:20:57;;;;;;;;;5.40;4.60;;;;;6.87;58.38;98802.28;5055041;28;8850;-77
2023/04/12 02:23:26;;;;;;;;;2.00;1.00;;;;;6.94;58.55;98810.91;5033414;28;8838;-78
2023/04/12 02:25:55;;;;;;;;;4.60;4.60;;;;;6.93;58.05;98822.22;5055878;28;8847;-77
2023/04/12 02:28:24;;;;;;;;;4.60;2.80;;;;;6.80;58.13;98813.75;5086698;28;8855;-77
2023/04/12 02:30:54;;;;;;;;;2.80;2.80;;;;;6.90;57.34;98805.72;5087151;28;8843;-79
2023/04/12 02:33:27;;;;;;;;;2.00;2.00;;;;;6.83;57.10;98809.31;5068117;28;8870;-77
2023/04/12 02:35:58;;;;;;;;;4.20;4.20;;;;;6.95;56.75;98810.88;5083771;28;8860;-76
2023/04/12 02:38:27;;;;;;;;;4.20;3.00;;;;;6.74;57.20;98811.22;5086477;28;8898;-76
2023/04/12 02:40:57;;;;;;;;;4.60;3.80;;;;;6.49;57.42;98815.13;5086840;28;8898;-76
2023/04/12 02:43:26;;;;;;;;;3.80;3.00;;;;;6.61;56.58;98803.59;5069564;28;8832;-77
2023/04/12 02:46:02;;;;;;;;;2.00;2.00;;;;;6.80;56.42;98811.13;5069697;28;8942;-77
2023/04/12 02:48:38;;;;;;;;;3.40;3.40;;;;;6.69;55.62;98809.53;5086533;28;8839;-79
2023/04/12 02:51:08;;;;;;;;;1.40;1.40;;;;;6.60;55.54;98809.69;5065561;28;8858;-77
2023/04/12 02:53:38;;;;;;;;;2.00;2.00;;;;;6.75;55.44;98805.97;5065993;28;8862;-77
2023/04/12 02:56:20;;;;;;;;;2.00;2.00;;;;;6.73;55.97;98801.66;5049517;28;8976;-78
2023/04/12 02:58:56;;;;;;;;;1.40;1.40;;;;;6.75;56.50;98805.13;5049334;28;8876;-77
2023/04/12 03:01:45;;;;;;;;;6.40;4.60;;;;;6.59;56.34;98813.22;5065801;28;9408;-76
2023/04/12 03:04:30;;;;;;;;;5.80;4.80;;;;;6.48;57.15;98817.75;5041364;28;8872;-78
2023/04/12 03:07:00;;;;;;;;;6.60;2.00;;;;;6.41;55.63;98818.72;5084598;28;8849;-78
2023/04/12 03:09:37;;;;;;;;;1.20;1.20;;;;;6.48;55.36;98821.22;5036805;28;8962;-77
2023/04/12 03:12:07;;;;;;;;;2.60;1.80;;;;;6.29;53.60;98823.25;5035819;28;8853;-80
2023/04/12 03:14:43;;;;;;;;;2.00;2.00;;;;;6.08;52.91;98847.91;5048775;28;8888;-79
2023/04/12 03:17:13;;;;;;;;;1.40;1.00;;;;;6.29;52.46;98825.84;5048383;28;8880;-76
2023/04/12 03:19:42;;;;;;;;;1.00;1.00;;;;;6.16;51.18;98828.69;5067114;28;9594;-75
2023/04/12 03:22:12;;;;;;;;;1.80;0.80;;;;;5.99;50.89;98819.34;5067896;28;8852;-78
2023/04/12 03:24:45;;;;;;;;;1.40;1.20;;;;;6.17;50.87;98835.59;5034355;28;9702;-78
2023/04/12 03:27:19;;;;;;;;;1.00;1.00;;;;;6.09;51.85;98823.53;5031247;28;8853;-76
2023/04/12 03:29:51;;;;;;;;;1.80;1.00;;;;;6.25;51.92;98818.09;5066881;28;9646;-80
2023/04/12 03:32:23;;;;;;;;;2.40;2.40;;;;;6.29;53.23;98814.56;5051543;28;8845;-79
2023/04/12 03:34:53;;;;;;;;;3.20;2.80;;;;;6.28;53.85;98815.44;5015496;28;8859;-77
2023/04/12 03:37:25;;;;;;;;;5.80;4.20;;;;;6.38;53.65;98811.81;5034671;28;8875;-76
2023/04/12 03:39:57;;;;;;;;;5.60;2.20;;;;;6.30;53.71;98813.66;5021057;28;8855;-76
2023/04/12 03:42:28;;;;;;;;;3.40;3.20;;;;;6.25;53.81;98820.72;5018934;28;8871;-77
2023/04/12 03:45:13;;;;;;;;;0.80;0.80;;;;;5.96;53.54;98805.47;5034213;28;8898;-77
2023/04/12 03:47:47;;;;;;;;;3.20;3.20;;;;;6.00;52.99;98815.84;5051593;28;9097;-76
2023/04/12 03:50:19;;;;;;;;;1.80;1.20;;;;;5.82;53.45;98803.91;5033389;28;8851;-76
2023/04/12 03:52:55;;;;;;;;;1.00;1.00;;;;;5.53;53.92;98815.59;5050690;28;8871;-77
2023/04/12 03:55:29;;;;;;;;;2.00;2.00;;;;;5.51;53.39;98819.97;5034669;28;8859;-79
2023/04/12 03:58:00;;;;;;;;;1.00;1.00;;;;;5.52;52.93;98816.44;5051581;28;9729;-77
2023/04/12 04:00:35;;;;;;;;;5.20;3.80;;;;;5.55;53.00;98818.19;5011148;28;8843;-79
2023/04/12 04:03:10;;;;;;;;;4.60;4.20;;;;;5.46;53.44;98826.09;4995062;28;8980;-78
2023/04/12 04:06:00;;;;;;;;;3.20;1.40;;;;;5.54;52.86;98822.50;5035826;28;8892;-77
2023/04/12 04:08:32;;;;;;;;;1.00;1.00;;;;;5.39;53.11;98833.13;5047862;28;8996;-79
2023/04/12 04:11:01;;;;;;;;;1.00;1.00;;;;;5.21;53.39;98847.19;5016523;28;8882;-78
2023/04/12 04:13:37;;;;;;;;;1.00;1.00;;;;;5.24;53.88;98831.50;4991507;28;8873;-78
2023/04/12 04:16:10;;;;;;;;;4.00;2.00;;;;;5.28;53.63;98846.25;4991364;28;8858;-80
2023/04/12 04:18:42;;;;;;;;;1.00;1.00;;;;;5.24;53.02;98839.31;4975292;28;8854;-78
2023/04/12 04:21:14;;;;;;;;;1.00;1.00;;;;;5.30;53.17;98841.00;4993688;28;8850;-78
2023/04/12 04:23:46;;;;;;;;;1.60;1.60;;;;;5.49;52.33;98839.09;5007840;28;8908;-77
2023/04/12 04:26:17;;;;;;;;;1.80;1.80;;;;;5.56;52.38;98825.09;4992270;28;8842;-75
2023/04/12 04:28:54;;;;;;;;;8.80;5.00;;;;;5.36;52.95;98835.78;5010850;28;9578;-77
2023/04/12 04:31:33;;;;;;;;;3.00;3.00;;;;;5.38;52.77;98833.13;5022623;28;8966;-77
2023/04/12 04:34:05;;;;;;;;;4.00;4.00;;;;;5.59;52.23;98834.66;5032850;28;8876;-77
2023/04/12 04:36:41;;;;;;;;;2.40;2.40;;;;;5.62;52.55;98832.84;5053576;28;8858;-76
2023/04/12 04:39:10;;;;;;;;;4.00;4.00;;;;;5.49;52.91;98839.97;5051050;28;8886;-77
2023/04/12 04:41:41;;;;;;;;;4.20;4.00;;;;;5.62;52.41;98838.06;5051907;28;8838;-78
2023/04/12 04:44:20;;;;;;;;;4.00;2.80;;;;;5.62;52.80;98839.81;5051152;28;8874;-80
2023/04/12 04:46:59;;;;;;;;;4.00;4.00;;;;;5.72;52.60;98844.06;5068601;28;8850;-81
2023/04/12 04:49:29;;;;;;;;;5.00;4.00;;;;;5.97;52.39;98839.38;5046554;28;8858;-81
2023/04/12 04:52:19;;;;;;;;;4.40;4.40;;;;;6.02;51.45;98847.13;5032403;28;8869;-80
2023/04/12 04:54:49;;;;;;;;;4.40;4.40;;;;;6.04;51.79;98843.63;5013795;28;8867;-80
2023/04/12 04:57:19;;;;;;;;;3.60;3.60;;;;;5.99;51.82;98837.59;5012608;28;8856;-80
2023/04/12 04:59:49;;;;;;;;;3.20;3.20;;;;;6.07;51.15;98840.09;5012924;28;8922;-78
2023/04/12 05:02:18;;;;;;;;;2.00;2.00;;;;;6.36;50.49;98830.97;5028735;28;8991;-81
2023/04/12 05:04:50;;;;;;;;;1.40;1.40;;;;;5.84;51.66;98837.81;5023857;28;8863;-79
2023/04/12 05:07:25;;;;;;;;;2.40;2.40;;;;;6.31;50.73;98833.66;5008680;28;8865;-81
2023/04/12 05:09:54;;;;;;;;;3.80;2.00;;;;;6.57;49.38;98840.22;5019859;28;8966;-80
2023/04/12 05:12:23;;;;;;;;;2.40;2.00;;;;;6.82;49.21;98844.16;5050193;28;8897;-79
2023/04/12 05:14:55;;;;;;;;;3.20;2.00;;;;;6.84;49.09;98850.22;5048550;28;8910;-81
2023/04/12 05:17:41;;;;;;;;;6.20;5.20;;;;;6.31;50.44;98852.78;5039943;28;8852;-80
2023/04/12 05:20:12;;;;;;;;;4.20;4.20;;;;;6.69;50.19;98848.72;5028513;28;8855;-79
2023/04/12 05:22:41;;;;;;;;;3.20;3.00;;;;;6.46;50.97;98850.84;5038334;28;8846;-81
2023/04/12 05:25:10;;;;;;;;;5.40;5.40;;;;;6.89;49.46;98844.94;5072546;28;8884;-81
2023/04/12 05:27:47;;;;;;;;;7.40;6.00;;;;;7.05;49.42;98835.09;5066680;28;8864;-82
2023/04/12 05:30:20;;;;;;;;;3.00;1.40;;;;;7.03;49.87;98836.88;5074888;28;8887;-81
2023/04/12 05:32:50;;;;;;;;;5.60;4.80;;;;;7.25;48.57;98846.06;5070233;28;8854;-79
2023/04/12 05:35:21;;;;;;;;;5.00;5.00;;;;;7.27;48.41;98844.25;5084693;28;8894;-81
2023/04/12 05:37:55;;;;;;;;;7.00;5.00;;;;;6.89;49.89;98840.59;5061090;28;8926;-80
2023/04/12 05:40:24;;;;;;;;;2.80;2.80;;;;;7.05;48.36;98833.34;5071165;28;10099;-80
2023/04/12 05:42:54;;;;;;;;;9.20;6.20;;;;;6.95;49.01;98823.94;5074607;28;8851;-80
2023/04/12 05:45:25;;;;;;;;;3.40;3.40;;;;;7.15;48.76;98833.16;5060564;28;8861;-82
2023/04/12 05:47:55;;;;;;;;;6.00;5.40;;;;;7.69;47.92;98822.53;5059235;28;8968;-81
2023/04/12 05:50:26;;;;;;;;;4.20;4.20;;;;;7.87;46.86;98824.75;5103063;28;8839;-81
2023/04/12 05:52:55;;;;;;;;;2.00;2.00;;;;;8.09;46.49;98826.91;5092140;28;9727;-81
2023/04/12 05:55:30;;;;;;;;;5.40;5.40;;;;;7.35;49.05;98832.81;5075059;28;8878;-79
2023/04/12 05:58:00;;;;;;;;;5.40;3.00;;;;;7.78;47.85;98824.94;5092607;28;8844;-80
2023/04/12 06:00:30;;;;;;;;;2.80;2.00;;;;;7.14;48.76;98834.94;5071468;28;8877;-84
2023/04/12 06:03:00;;;;;;;;;4.60;4.60;;;;;6.57;50.38;98833.25;5055352;28;8872;-79
2023/04/12 06:05:30;;;;;;;;;3.00;3.00;;;;;6.51;50.97;98831.63;5067203;28;9613;-82
2023/04/12 06:07:59;;;;;;;;;1.40;1.20;;;;;6.47;50.85;98826.44;5091964;28;8923;-80
2023/04/12 06:10:28;;;;;;;;;8.60;7.60;;;;;6.46;50.80;98822.97;5110235;28;8864;-80
2023/04/12 06:12:59;;;;;;;;;6.40;5.80;;;;;6.67;50.04;98826.13;5057982;28;8844;-81
2023/04/12 06:15:30;;;;;;;;;5.20;3.40;;;;;6.26;49.62;98828.50;5065141;28;9620;-78
2023/04/12 06:18:02;;;;;;;;;3.00;3.00;;;;;6.48;50.16;98815.13;5093535;28;8959;-79
2023/04/12 06:20:38;;;;;;;;;3.80;2.60;;;;;6.36;50.50;98817.91;5069710;28;8834;-80
2023/04/12 06:23:07;;;;;;;;;9.00;8.40;;;;;6.59;50.23;98813.22;5034089;28;8854;-80
2023/04/12 06:25:37;;;;;;;;;3.00;3.00;;;;;6.21;50.24;98830.34;4944064;28;8957;-81
2023/04/12 06:28:07;;;;;;;;;1.00;1.00;;;;;6.40;51.11;98815.25;4933679;28;8929;-80
2023/04/12 06:30:43;;;;;;;;;6.00;5.00;;;;;6.71;49.88;98804.31;4936511;29;8862;-80
2023/04/12 06:33:12;;;;;;;;;3.20;3.20;;;;;6.91;49.08;98809.22;4929193;29;8891;-78
2023/04/12 06:35:42;;;;;;;;;6.20;5.40;;;;;6.75;50.12;98805.97;4896406;29;8893;-80
2023/04/12 06:38:13;;;;;;;;;4.60;3.80;;;;;7.19;48.34;98801.72;4895919;29;8864;-81
2023/04/12 06:40:42;;;;;;;;;4.20;2.80;;;;;7.26;47.46;98805.94;4929486;29;9011;-82
2023/04/12 06:43:12;;;;;;;;;3.60;3.60;;;;;6.95;48.27;98815.25;4913160;29;8867;-80
2023/04/12 06:45:41;;;;;;;;;2.80;2.00;;;;;7.27;47.94;98806.81;4914289;29;8861;-80
2023/04/12 06:48:10;;;;;;;;;5.20;3.00;;;;;7.02;48.96;98814.22;4899296;29;8866;-80
2023/04/12 06:50:40;;;;;;;;;5.60;5.60;;;;;7.44;48.11;98823.03;4907214;29;8903;-80
2023/04/12 06:53:12;;;;;;;;;6.80;3.00;;;;;7.36;48.05;98811.88;4911123;29;8871;-79
2023/04/12 06:55:41;;;;;;;;;3.00;3.00;;;;;7.42;47.27;98805.63;4897272;28;8899;-80
2023/04/12 06:58:10;;;;;;;;;6.00;5.80;;;;;7.29;48.27;98798.03;4951408;28;9798;-81
2023/04/12 07:00:39;;;;;;;;;5.80;3.00;;;;;7.21;48.21;98819.97;4967199;28;8907;-80
2023/04/12 07:03:09;;;;;;;;;5.20;3.00;;;;;7.09;48.70;98813.25;4952592;28;8877;-82
2023/04/12 07:05:39;;;;;;;;;5.20;3.80;;;;;6.89;49.56;98818.81;4977405;28;8954;-80
2023/04/12 07:08:10;;;;;;;;;2.40;1.00;;;;;6.40;50.79;98811.75;4993370;28;9629;-82
2023/04/12 07:10:39;;;;;;;;;5.00;5.00;;;;;6.50;49.86;98806.38;4992138;28;8875;-83
2023/04/12 07:13:08;;;;;;;;;4.00;4.00;;;;;6.94;49.20;98808.28;4937556;28;8867;-81
2023/04/12 07:15:36;;;;;;;;;5.40;5.20;;;;;6.85;49.79;98818.00;4998288;28;8887;-81
2023/04/12 07:18:06;;;;;;;;;3.00;3.00;;;;;6.77;49.25;98811.16;5011184;28;8875;-80
2023/04/12 07:20:35;;;;;;;;;5.40;5.40;;;;;6.91;49.36;98811.84;4994879;28;8961;-80
2023/04/12 07:23:04;;;;;;;;;6.40;6.40;;;;;7.06;48.72;98808.94;5038959;28;8961;-83
2023/04/12 07:25:37;;;;;;;;;7.40;5.20;;;;;6.88;49.97;98817.91;5059547;28;8875;-80
2023/04/12 07:28:06;;;;;;;;;4.20;4.20;;;;;6.64;50.28;98810.50;5079130;28;8864;-82
2023/04/12 07:30:38;;;;;;;;;5.00;4.20;;;;;6.90;49.67;98813.56;5104525;28;8853;-82
2023/04/12 07:33:08;;;;;;;;;5.40;5.00;;;;;7.04;49.25;98823.78;5074862;28;8850;-79
2023/04/12 07:35:47;;;;;;;;;6.60;5.40;;;;;7.19;49.57;98801.72;5076304;28;8867;-81
2023/04/12 07:38:16;;;;;;;;;10.20;7.80;;;;;6.99;49.54;98817.78;5104920;28;8861;-81
2023/04/12 07:40:46;;;;;;;;;6.00;6.00;;;;;7.53;47.45;98808.88;5075123;28;8890;-80
2023/04/12 07:43:18;;;;;;;;;6.20;6.20;;;;;7.56;47.63;98814.06;5074382;28;8846;-85
2023/04/12 07:45:46;;;;;;;;;4.60;4.60;;;;;7.42;47.74;98810.84;5050267;28;8838;-81
2023/04/12 07:48:16;;;;;;;;;6.40;6.00;;;;;7.65;47.92;98806.03;5064330;28;8874;-80
2023/04/12 07:50:45;;;;;;;;;8.80;6.40;;;;;7.49;48.11;98817.69;5105516;28;8978;-79
2023/04/12 07:53:19;;;;;;;;;9.00;7.00;;;;;7.50;47.48;98815.97;5083270;28;8991;-81
2023/04/12 07:55:49;;;;;;;;;8.20;8.20;;;;;7.40;46.46;98813.53;5068606;28;8867;-79
2023/04/12 07:58:21;;;;;;;;;6.00;5.00;;;;;7.44;46.57;98825.63;5088766;28;9580;-80
2023/04/12 08:00:50;;;;;;;;;6.00;5.80;;;;;7.17;47.70;98815.69;5083165;28;8843;-79
2023/04/12 08:03:19;;;;;;;;;4.60;4.60;;;;;7.11;48.49;98810.59;5091282;28;8847;-78
2023/04/12 08:05:52;;;;;;;;;8.20;7.80;;;;;7.26;48.08;98818.16;5074052;28;8867;-79
2023/04/12 08:08:22;;;;;;;;;5.60;5.60;;;;;7.33;47.47;98821.53;5092297;28;8864;-78
2023/04/12 08:10:52;;;;;;;;;11.80;11.80;;;;;7.76;46.79;98808.44;5055880;28;8876;-80
2023/04/12 08:13:21;;;;;;;;;7.20;6.40;;;;;7.76;46.61;98804.94;5086115;28;8863;-80
2023/04/12 08:15:51;;;;;;;;;4.20;3.80;;;;;7.55;48.05;98795.78;5064616;28;8874;-77
2023/04/12 08:18:20;;;;;;;;;7.00;6.00;;;;;7.97;47.20;98798.41;5072351;28;8959;-77
2023/04/12 08:20:49;;;;;;;;;7.40;7.40;;;;;8.06;46.50;98806.91;5059832;28;8858;-80
2023/04/12 08:23:18;;;;;;;;;6.60;5.80;;;;;8.07;45.27;98792.03;5022507;28;8872;-77
2023/04/12 08:25:47;;;;;;;;;9.20;7.00;;;;;8.20;45.88;98790.88;5109382;28;8851;-76
2023/04/12 08:28:17;;;;;;;;;7.60;6.80;;;;;8.19;44.81;98793.50;5076209;28;8882;-75
2023/04/12 08:30:46;;;;;;;;;7.80;6.20;;;;;8.22;44.98;98796.06;5110331;28;8863;-76
2023/04/12 08:33:16;;;;;;;;;7.80;6.80;;;;;8.33;45.59;98788.00;5091975;28;8860;-79
2023/04/12 08:35:44;;;;;;;;;7.20;5.60;;;;;8.60;44.63;98789.06;5074393;28;8906;-79
2023/04/12 08:38:15;;;;;;;;;11.00;8.40;;;;;9.05;44.16;98786.16;5092607;28;8882;-78
2023/04/12 08:40:45;;;;;;;;;6.80;6.60;;;;;8.41;44.67;98791.28;5071391;28;8887;-77
2023/04/12 08:43:17;;;;;;;;;6.00;6.00;;;;;8.92;43.32;98793.47;5058248;28;8824;-76
2023/04/12 08:45:47;;;;;;;;;7.00;6.60;;;;;8.86;42.44;98770.06;5083510;28;8919;-75
2023/04/12 08:48:18;;;;;;;;;5.80;5.60;;;;;8.80;42.08;98775.47;5064272;28;8843;-78
2023/04/12 08:50:47;;;;;;;;;5.60;5.60;;;;;9.01;41.43;98777.50;5032499;28;8939;-77
2023/04/12 08:53:18;;;;;;;;;5.20;5.20;;;;;8.74;41.26;98792.22;5090681;28;8867;-80
2023/04/12 08:55:48;;;;;;;;;4.40;4.20;;;;;9.03;39.06;98783.56;5062478;28;8878;-75
2023/04/12 08:58:19;;;;;;;;;4.20;4.00;;;;;9.11;39.76;98778.13;5044418;28;8862;-76
2023/04/12 09:00:49;;;;;;;;;7.20;7.20;;;;;9.23;39.42;98779.53;5075745;28;8842;-77
2023/04/12 09:03:17;;;;;;;;;5.20;5.20;;;;;9.36;38.82;98780.06;5080414;28;8839;-79
2023/04/12 09:05:47;;;;;;;;;7.40;6.00;;;;;8.98;39.42;98774.97;5080146;28;9757;-78
2023/04/12 09:08:17;;;;;;;;;7.00;6.00;;;;;8.61;38.92;98785.53;5052965;28;8856;-77
2023/04/12 09:10:46;;;;;;;;;2.80;2.80;;;;;8.69;39.03;98782.75;5065752;28;8875;-79
2023/04/12 09:13:15;;;;;;;;;5.00;5.00;;;;;8.82;39.25;98781.53;5046105;28;8873;-77
2023/04/12 09:15:51;;;;;;;;;6.00;6.00;;;;;8.79;39.16;98787.69;5021518;28;8862;-76
2023/04/12 09:18:22;;;;;;;;;7.00;7.00;;;;;9.37;38.63;98772.16;5030385;28;8935;-75
2023/04/12 09:20:51;;;;;;;;;5.60;5.20;;;;;9.60;37.14;98765.41;5038803;28;8968;-75
2023/04/12 09:23:23;;;;;;;;;6.40;6.40;;;;;9.57;37.32;98771.63;5048221;28;8866;-81
2023/04/12 09:25:53;;;;;;;;;2.00;2.00;;;;;9.10;38.03;98758.06;4981799;28;8967;-80
2023/04/12 09:28:24;;;;;;;;;5.80;4.20;;;;;9.22;38.04;98777.84;5030329;28;8842;-79
2023/04/12 09:30:56;;;;;;;;;5.60;4.80;;;;;9.50;37.15;98761.28;5048021;28;8855;-77
2023/04/12 09:33:34;;;;;;;;;3.00;3.00;;;;;9.36;36.05;98751.22;5033560;28;8867;-79
2023/04/12 09:36:04;;;;;;;;;5.80;5.80;;;;;9.32;36.26;98749.59;5033828;28;8863;-78
2023/04/12 09:38:35;;;;;;;;;6.40;4.20;;;;;9.13;37.15;98746.63;5014504;28;8858;-77
2023/04/12 09:41:17;;;;;;;;;4.80;3.60;;;;;9.70;36.18;98755.50;5039312;28;8906;-79
2023/04/12 09:43:51;;;;;;;;;6.00;6.00;;;;;10.08;35.22;98753.44;5040265;28;8886;-79
2023/04/12 09:46:23;;;;;;;;;5.20;4.20;;;;;9.97;34.64;98752.03;5088835;28;8918;-79
2023/04/12 09:48:54;;;;;;;;;3.80;3.40;;;;;9.72;34.47;98741.41;5106611;28;8896;-79
2023/04/12 09:51:28;;;;;;;;;3.20;3.20;;;;;9.31;34.53;98755.72;5067744;28;8900;-82
2023/04/12 09:53:59;;;;;;;;;5.20;4.20;;;;;9.80;34.38;98749.06;5049490;28;8877;-80
2023/04/12 09:56:30;;;;;;;;;6.60;5.40;;;;;10.18;33.92;98749.66;5076697;28;10940;-79
2023/04/12 09:59:02;;;;;;;;;4.00;4.00;;;;;10.33;33.97;98737.75;5103346;28;8861;-78
2023/04/12 10:01:36;;;;;;;;;6.00;6.00;;;;;10.46;34.18;98748.72;5090143;28;8848;-78
2023/04/12 10:04:08;;;;;;;;;3.80;2.60;;;;;10.58;33.38;98743.06;5054311;28;8868;-76
2023/04/12 10:06:37;;;;;;;;;2.60;2.60;;;;;10.13;33.83;98739.28;5070337;28;8876;-79
2023/04/12 10:09:07;;;;;;;;;5.20;5.20;;;;;10.10;33.98;98747.22;5053632;28;8870;-79
2023/04/12 10:11:39;;;;;;;;;7.60;6.60;;;;;10.32;33.95;98729.03;5088774;28;8849;-78
2023/04/12 10:14:10;;;;;;;;;5.00;3.60;;;;;9.75;33.99;98743.09;5053800;28;8845;-77
2023/04/12 10:16:43;;;;;;;;;2.00;2.00;;;;;10.00;33.25;98736.16;5067546;28;8871;-78
2023/04/12 10:19:13;;;;;;;;;2.60;2.60;;;;;10.26;33.45;98736.25;5086811;28;8965;-78
2023/04/12 10:21:42;;;;;;;;;2.40;2.40;;;;;9.80;33.51;98733.31;5045369;28;9576;-75
2023/04/12 10:24:11;;;;;;;;;4.40;4.40;;;;;10.05;34.01;98732.53;5030964;28;8840;-77
2023/04/12 10:26:42;;;;;;;;;4.00;4.00;;;;;10.46;32.98;98725.94;5010876;28;8926;-80
2023/04/12 10:29:25;;;;;;;;;3.60;2.80;;;;;10.79;31.60;98713.44;5025005;28;8957;-78
2023/04/12 10:31:57;;;;;;;;;3.80;3.00;;;;;10.77;30.88;98725.78;5025188;28;8888;-77
2023/04/12 10:34:29;;;;;;;;;3.20;3.20;;;;;11.05;30.91;98719.56;5024818;28;8848;-78
2023/04/12 10:37:00;;;;;;;;;4.00;3.00;;;;;10.96;30.74;98733.03;5008976;28;8988;-78
2023/04/12 10:39:40;;;;;;;;;2.00;2.00;;;;;10.84;30.98;98709.78;5015572;28;8872;-78
2023/04/12 10:42:23;;;;;;;;;5.60;4.80;;;;;10.88;30.73;98712.25;5029277;28;8865;-78
2023/04/12 10:44:55;;;;;;;;;4.00;4.00;;;;;10.51;31.15;98734.53;5029987;28;8941;-76
2023/04/12 10:48:02;;;;;;;;;6.00;3.00;;;;;10.74;29.95;98717.13;5005928;28;8895;-77
2023/04/12 10:50:34;;;;;;;;;3.00;3.00;;;;;11.05;29.22;98731.81;5015482;28;8995;-76
2023/04/12 10:53:27;;;;;;;;;3.60;3.60;;;;;10.56;28.60;98724.72;5010122;28;8983;-77
2023/04/12 10:55:57;;;;;;;;;6.00;6.00;;;;;10.87;29.53;98715.78;5013015;28;8845;-79
2023/04/12 10:58:57;;;;;;;;;5.20;3.20;;;;;11.30;28.07;98716.03;5014802;28;8856;-76
2023/04/12 11:01:30;;;;;;;;;5.40;5.40;;;;;11.72;28.04;98699.50;5032879;28;10206;-76
2023/04/12 11:04:08;;;;;;;;;2.80;2.80;;;;;11.33;28.90;98700.09;5031584;28;8849;-77
2023/04/12 11:06:56;;;;;;;;;4.40;2.60;;;;;10.99;29.57;98711.84;5092843;28;8858;-80
2023/04/12 11:09:47;;;;;;;;;7.00;5.20;;;;;11.09;29.45;98697.47;5092578;28;8853;-77
2023/04/12 11:12:29;;;;;;;;;3.80;3.00;;;;;11.28;29.82;98704.69;5081006;28;8856;-76
2023/04/12 11:15:00;;;;;;;;;5.60;3.60;;;;;11.52;28.56;98687.09;5092590;28;8844;-76
2023/04/12 11:17:52;;;;;;;;;3.20;3.00;;;;;11.73;28.18;98690.69;5066349;28;8848;-79
2023/04/12 11:20:23;;;;;;;;;3.20;3.20;;;;;12.10;26.83;98676.91;5094120;28;9614;-78
2023/04/12 11:22:54;;;;;;;;;5.40;5.00;;;;;12.11;26.63;98680.41;5066670;28;8845;-76
2023/04/12 11:25:26;;;;;;;;;7.60;5.60;;;;;12.17;26.99;98669.63;5057200;28;8864;-77
2023/04/12 11:27:55;;;;;;;;;4.40;4.40;;;;;12.25;26.27;98687.75;5091634;28;8853;-78
2023/04/12 11:30:28;;;;;;;;;7.20;5.20;;;;;12.34;26.26;98688.22;5073076;28;8867;-77
2023/04/12 11:32:57;;;;;;;;;6.60;4.00;;;;;12.95;25.93;98683.03;5093580;28;8835;-75
2023/04/12 11:35:30;;;;;;;;;4.40;4.40;;;;;13.03;25.38;98681.75;5088935;28;8885;-78
2023/04/12 11:38:00;;;;;;;;;2.60;2.60;;;;;12.17;26.38;98681.94;5049643;28;8842;-78
2023/04/12 11:40:29;;;;;;;;;6.60;4.40;;;;;12.19;26.09;98688.00;5080264;28;8843;-78
2023/04/12 11:42:59;;;;;;;;;3.00;3.00;;;;;12.25;24.36;98679.84;5087251;28;8836;-78
2023/04/12 11:45:30;;;;;;;;;4.80;4.80;;;;;12.51;24.34;98666.41;5092401;28;8856;-78
2023/04/12 11:47:59;;;;;;;;;5.00;3.00;;;;;12.90;24.58;98662.09;5009179;28;8866;-76
2023/04/12 11:50:31;;;;;;;;;3.20;3.20;;;;;13.00;23.71;98657.31;5091120;28;8878;-76
2023/04/12 11:53:11;;;;;;;;;5.40;3.40;;;;;13.34;23.66;98647.84;5075118;28;9596;-76
2023/04/12 11:55:40;;;;;;;;;3.00;3.00;;;;;13.62;23.20;98656.16;5091741;28;8862;-75
2023/04/12 11:58:09;;;;;;;;;3.00;3.00;;;;;13.22;23.82;98660.69;5092177;28;8859;-76
2023/04/12 12:00:41;;;;;;;;;2.00;2.00;;;;;13.35;23.77;98662.72;5075133;28;8856;-77
2023/04/12 12:03:10;;;;;;;;;4.00;4.00;;;;;12.98;24.65;98659.16;5091745;28;8864;-77
2023/04/12 12:05:42;;;;;;;;;3.40;3.40;;;;;12.98;24.93;98667.06;5073408;28;8831;-80
2023/04/12 12:08:13;;;;;;;;;2.80;2.80;;;;;12.59;24.78;98649.41;5089069;28;9015;-79
2023/04/12 12:10:42;;;;;;;;;2.40;2.40;;;;;12.49;24.27;98668.25;5029143;28;8869;-79
2023/04/12 12:13:44;;;;;;;;;4.60;4.60;;;;;13.03;23.59;98678.25;5029852;28;8921;-80